Aviation Digital Data Service (ADDS)

Output produced by METARs form (0421 UTC 26 January 2015)
found at http://aviationweather.gov/adds/metars/
 
KSWF 252357Z 2600/2706 VRB03KT P6SM BKN250 
     FM260900 VRB05KT P6SM BKN040 
     FM261200 07005KT P6SM BKN030 
     TEMPO 2613/2616 3SM -SN BR BKN015 
     FM261600 06008KT 1SM -SN BR BKN007 
     FM261900 04012KT 3/4SM -SN BR BKN007 
     FM262300 03014G24KT 1/2SM SN FZFG VV005 
     FM270200 02018G33KT 1/2SM SN FZFG VV005 AMD NOT SKED